Time;durP1;ratioP1;P1;durP2;ratioP2;P2;SDS_P1;SDS_P2;PMS_P1;PMS_P2;Temp;Humidity;BMP_temperature;BMP_pressure;BME280_temperature;BME280_humidity;BME280_pressure;Samples;Min_cycle;Max_cycle;Signal;HPM_P1;HPM_P2
2022/05/07 00:01:19;;;;;;;5.00;3.58;;;;;;;9.63;85.72;95498.03;5069909;28;20045;-70
2022/05/07 00:03:46;;;;;;;5.93;3.70;;;;;;;9.55;85.78;95490.47;5066685;28;20108;-70
2022/05/07 00:06:13;;;;;;;6.47;4.05;;;;;;;9.55;86.43;95500.88;5078842;28;20068;-72
2022/05/07 00:08:40;;;;;;;7.38;4.03;;;;;;;9.53;86.82;95502.91;5064276;28;20040;-71
2022/05/07 00:11:07;;;;;;;9.32;3.90;;;;;;;9.53;86.88;95497.69;5063735;28;20041;-69
2022/05/07 00:13:33;;;;;;;6.10;3.67;;;;;;;9.47;88.06;95493.31;5079170;28;20071;-71
2022/05/07 00:18:46;;;;;;;7.20;4.30;;;;;;;9.40;89.15;95497.75;5070818;28;20048;-71
2022/05/07 00:21:13;;;;;;;7.75;3.72;;;;;;;9.29;88.12;95481.81;5072104;28;20055;-71
2022/05/07 00:23:40;;;;;;;5.55;3.90;;;;;;;9.28;87.98;95501.00;5063118;28;20045;-71
2022/05/07 00:26:07;;;;;;;6.13;3.40;;;;;;;9.19;88.82;95491.84;5074266;28;20125;-70
2022/05/07 00:28:36;;;;;;;8.43;4.10;;;;;;;9.25;88.89;95496.19;5053691;28;20144;-69
2022/05/07 00:31:02;;;;;;;4.82;3.45;;;;;;;9.23;88.60;95492.22;5061097;28;20048;-69
2022/05/07 00:33:29;;;;;;;7.57;3.72;;;;;;;9.19;89.09;95486.63;5073589;28;20066;-70
2022/05/07 00:35:56;;;;;;;4.63;3.13;;;;;;;9.15;89.63;95482.88;5041021;28;20713;-70
2022/05/07 00:38:23;;;;;;;5.05;3.38;;;;;;;9.17;89.02;95489.44;5067071;28;20062;-70
2022/05/07 00:40:50;;;;;;;5.00;3.53;;;;;;;8.96;87.91;95456.72;5076748;28;20052;-71
2022/05/07 00:43:18;;;;;;;5.15;3.35;;;;;;;9.07;87.86;95477.88;5057349;28;20780;-69
2022/05/07 00:45:47;;;;;;;6.40;3.63;;;;;;;9.02;87.30;95481.13;5078102;28;20139;-70
2022/05/07 00:48:15;;;;;;;5.47;3.50;;;;;;;9.02;87.49;95495.88;5055216;28;20336;-71
2022/05/07 00:53:31;;;;;;;8.18;3.67;;;;;;;8.98;87.13;95485.91;5083923;28;20047;-70
2022/05/07 00:55:59;;;;;;;5.63;3.40;;;;;;;8.95;86.47;95483.72;5051481;28;20036;-70
2022/05/07 00:58:26;;;;;;;5.03;3.35;;;;;;;8.93;86.19;95488.31;5074059;28;20040;-70
2022/05/07 01:00:53;;;;;;;10.13;3.35;;;;;;;8.88;86.08;95485.53;5069518;28;20117;-70
2022/05/07 01:03:22;;;;;;;6.28;3.90;;;;;;;8.91;86.18;95490.34;5063274;28;20739;-71
2022/05/07 01:05:49;;;;;;;9.10;3.17;;;;;;;8.91;85.37;95485.13;5074537;28;20059;-71
2022/05/07 01:08:19;;;;;;;5.00;3.15;;;;;;;8.81;85.15;95479.56;5066853;28;20041;-71
2022/05/07 01:10:47;;;;;;;8.23;3.65;;;;;;;8.79;84.93;95481.56;5046286;28;20093;-71
2022/05/07 01:13:17;;;;;;;5.07;3.20;;;;;;;8.72;84.42;95478.19;5056133;28;20048;-71
2022/05/07 01:15:48;;;;;;;8.05;2.88;;;;;;;8.63;84.55;95464.59;5059700;28;20049;-71
2022/05/07 01:18:17;;;;;;;5.28;3.13;;;;;;;8.64;84.44;95463.59;5074820;28;20522;-71
2022/05/07 01:20:44;;;;;;;3.88;2.83;;;;;;;8.69;84.37;95481.19;5068645;28;20041;-71
2022/05/07 01:23:15;;;;;;;7.70;3.60;;;;;;;8.64;84.61;95478.38;5081868;28;20052;-70
2022/05/07 01:25:42;;;;;;;5.30;2.90;;;;;;;8.61;84.24;95477.78;5059332;28;20139;-70
2022/05/07 01:28:09;;;;;;;5.75;3.70;;;;;;;8.59;84.21;95482.41;5067818;28;20032;-70
2022/05/07 01:30:37;;;;;;;4.50;3.15;;;;;;;8.45;84.10;95469.63;5054741;28;20146;-70
2022/05/07 01:33:05;;;;;;;6.13;3.08;;;;;;;8.53;83.96;95472.00;5064578;28;20548;-70
2022/05/07 01:35:33;;;;;;;4.90;3.58;;;;;;;8.49;83.39;95474.22;5040276;28;20041;-70
2022/05/07 01:38:00;;;;;;;10.27;3.58;;;;;;;8.54;83.35;95489.97;5073297;28;20648;-70
2022/05/07 01:40:32;;;;;;;8.27;3.72;;;;;;;8.55;82.79;95476.00;5056840;28;20098;-70
2022/05/07 01:42:59;;;;;;;5.20;3.38;;;;;;;8.49;82.64;95476.81;5083379;28;20044;-70
2022/05/07 01:45:26;;;;;;;7.20;3.03;;;;;;;8.50;82.87;95482.78;5065480;28;20118;-71
2022/05/07 01:48:10;;;;;;;5.78;2.92;;;;;;;8.48;82.89;95485.63;5076265;28;20043;-70
2022/05/07 01:50:48;;;;;;;5.03;3.88;;;;;;;8.46;82.95;95486.78;5061690;28;20157;-71
2022/05/07 01:53:19;;;;;;;5.50;2.97;;;;;;;8.42;83.59;95482.00;5058518;28;20048;-70
2022/05/07 01:55:49;;;;;;;5.63;3.58;;;;;;;8.40;83.08;95473.59;5062898;28;20830;-70
2022/05/07 01:58:19;;;;;;;4.90;3.35;;;;;;;8.47;83.58;95483.22;5058863;28;20041;-70
2022/05/07 02:00:46;;;;;;;6.90;2.88;;;;;;;8.42;84.14;95483.81;5075052;28;20041;-70
2022/05/07 02:03:13;;;;;;;4.85;2.72;;;;;;;8.23;85.02;95462.81;5082433;28;20051;-70
2022/05/07 02:05:41;;;;;;;5.10;3.20;;;;;;;8.28;84.71;95482.19;5048626;28;20071;-70
2022/05/07 02:08:09;;;;;;;13.38;3.55;;;;;;;8.31;85.03;95484.38;5072166;28;20134;-70
2022/05/07 02:10:37;;;;;;;10.57;3.63;;;;;;;8.26;85.36;95486.78;5048986;28;20044;-71
2022/05/07 02:13:03;;;;;;;5.10;3.08;;;;;;;8.20;86.12;95488.38;5087104;28;20050;-71
2022/05/07 02:15:32;;;;;;;5.28;3.15;;;;;;;8.23;85.52;95483.59;5062045;28;20052;-70
2022/05/07 02:17:59;;;;;;;5.30;3.28;;;;;;;8.16;85.94;95482.00;5091793;28;20079;-70
2022/05/07 02:20:27;;;;;;;7.20;3.47;;;;;;;8.18;87.15;95493.75;5073942;28;20049;-70
2022/05/07 02:22:57;;;;;;;6.80;4.10;;;;;;;8.21;86.11;95490.78;5062305;28;20051;-70
2022/05/07 02:25:25;;;;;;;5.95;3.83;;;;;;;8.18;86.11;95485.97;5063669;28;20207;-70
2022/05/07 02:27:58;;;;;;;5.40;3.67;;;;;;;8.03;86.39;95472.38;5071928;28;20037;-71
2022/05/07 02:30:26;;;;;;;6.72;3.78;;;;;;;7.94;86.84;95463.19;5055463;28;20043;-71
2022/05/07 02:32:57;;;;;;;5.05;3.35;;;;;;;8.03;86.90;95483.59;5059828;28;20167;-71
2022/05/07 02:35:25;;;;;;;7.90;3.83;;;;;;;8.00;87.40;95475.41;5027409;28;20049;-71
2022/05/07 02:37:54;;;;;;;4.95;3.03;;;;;;;7.96;88.00;95474.16;5075003;28;20048;-71
2022/05/07 02:40:21;;;;;;;7.25;3.55;;;;;;;7.98;87.42;95467.81;5060062;28;20055;-71
2022/05/07 02:42:49;;;;;;;4.65;2.88;;;;;;;7.89;88.31;95460.44;5085393;28;20138;-71
2022/05/07 02:45:18;;;;;;;6.82;2.80;;;;;;;7.96;87.58;95477.59;5066130;28;20759;-71
2022/05/07 02:47:52;;;;;;;4.15;3.10;;;;;;;7.97;87.29;95478.38;5072518;28;20142;-71
2022/05/07 02:50:21;;;;;;;6.03;3.25;;;;;;;7.79;87.19;95460.81;5021122;28;20629;-71
2022/05/07 02:52:48;;;;;;;5.20;2.97;;;;;;;7.86;87.78;95482.34;5056524;28;20541;-71
2022/05/07 02:55:15;;;;;;;4.95;2.92;;;;;;;7.83;87.78;95488.75;5053592;28;20441;-70
2022/05/07 02:57:48;;;;;;;6.25;3.28;;;;;;;7.80;87.62;95477.97;5060586;28;20037;-70
2022/05/07 03:00:16;;;;;;;7.40;3.47;;;;;;;7.65;89.18;95485.91;5072107;28;20068;-70
2022/05/07 03:02:45;;;;;;;4.95;2.63;;;;;;;7.55;89.46;95472.53;5047016;28;20048;-70
2022/05/07 03:05:12;;;;;;;13.57;4.00;;;;;;;7.57;90.22;95488.69;5061971;28;20048;-70
2022/05/07 03:07:39;;;;;;;4.50;3.50;;;;;;;7.48;90.87;95480.28;5074894;28;20044;-71
2022/05/07 03:10:13;;;;;;;4.55;2.85;;;;;;;7.47;90.86;95484.69;5065785;28;20073;-71
2022/05/07 03:12:40;;;;;;;6.93;2.58;;;;;;;7.40;91.43;95486.44;5058086;28;20047;-71
2022/05/07 03:15:09;;;;;;;5.13;3.05;;;;;;;7.33;92.31;95477.84;5043718;28;20045;-71
2022/05/07 03:17:36;;;;;;;8.93;3.20;;;;;;;7.24;92.58;95468.66;5071520;28;20055;-71
2022/05/07 03:20:09;;;;;;;5.97;4.07;;;;;;;7.34;92.82;95481.25;5059923;28;20526;-71
2022/05/07 03:22:39;;;;;;;7.50;3.50;;;;;;;7.35;93.15;95481.03;5072325;28;20056;-71
2022/05/07 03:25:06;;;;;;;4.80;2.75;;;;;;;7.34;93.80;95479.44;5050677;28;20403;-71
2022/05/07 03:27:34;;;;;;;6.63;2.97;;;;;;;7.28;94.15;95480.22;5074852;28;20052;-71
2022/05/07 03:30:09;;;;;;;8.07;3.45;;;;;;;7.29;93.83;95484.41;5053256;28;20048;-71
2022/05/07 03:32:49;;;;;;;4.95;3.45;;;;;;;7.32;93.97;95481.44;5048126;28;20044;-70
2022/05/07 03:35:16;;;;;;;6.93;3.53;;;;;;;7.37;92.55;95479.06;5071426;28;20064;-70
2022/05/07 03:37:44;;;;;;;4.90;3.17;;;;;;;7.37;92.86;95473.88;5070918;28;20132;-70
2022/05/07 03:40:12;;;;;;;5.55;3.60;;;;;;;7.42;93.07;95481.88;5073193;28;20044;-71
2022/05/07 03:42:39;;;;;;;5.03;3.28;;;;;;;7.42;92.99;95486.25;5041911;28;20130;-70
2022/05/07 03:45:07;;;;;;;4.47;3.03;;;;;;;7.37;92.79;95481.66;5057641;28;20051;-71
2022/05/07 03:47:36;;;;;;;5.03;3.63;;;;;;;7.40;92.85;95481.25;5075188;28;20101;-71
2022/05/07 03:50:05;;;;;;;4.75;3.30;;;;;;;7.39;93.81;95487.44;5037924;28;20045;-71
2022/05/07 03:55:21;;;;;;;5.68;3.20;;;;;;;7.47;93.37;95495.03;5086125;28;20059;-72
2022/05/07 03:57:48;;;;;;;5.15;3.33;;;;;;;7.50;93.59;95498.25;5058222;28;20048;-72
2022/05/07 04:00:17;;;;;;;4.18;2.97;;;;;;;7.46;93.55;95483.06;5049310;28;20500;-71
2022/05/07 04:02:49;;;;;;;5.25;3.58;;;;;;;7.47;93.64;95479.50;5070387;28;20059;-71
2022/05/07 04:05:28;;;;;;;4.13;3.00;;;;;;;7.59;93.38;95491.88;5056571;28;20036;-71
2022/05/07 04:08:04;;;;;;;6.75;3.42;;;;;;;7.62;93.24;95492.28;5074401;28;20036;-71
2022/05/07 04:10:32;;;;;;;6.15;3.03;;;;;;;7.70;93.44;95496.47;5074106;28;20729;-71
2022/05/07 04:12:59;;;;;;;7.78;3.33;;;;;;;7.74;92.77;95486.53;5070150;28;20067;-72
2022/05/07 04:15:27;;;;;;;7.55;3.35;;;;;;;7.91;92.36;95495.53;5063513;28;20376;-71
2022/05/07 04:17:59;;;;;;;8.43;3.90;;;;;;;7.89;92.25;95486.38;5091437;28;20048;-72
2022/05/07 04:20:26;;;;;;;7.60;3.20;;;;;;;8.00;91.56;95489.16;5065320;28;20043;-72
2022/05/07 04:22:59;;;;;;;5.68;3.60;;;;;;;8.10;91.34;95499.13;5072871;28;20072;-72
2022/05/07 04:25:26;;;;;;;5.28;3.05;;;;;;;8.14;91.45;95505.53;5055029;28;20090;-72
2022/05/07 04:27:53;;;;;;;8.45;3.45;;;;;;;8.18;91.47;95506.72;5074268;28;20052;-72
2022/05/07 04:30:23;;;;;;;9.93;3.80;;;;;;;8.28;91.43;95505.53;5067095;28;20072;-72
2022/05/07 04:32:50;;;;;;;7.18;3.38;;;;;;;8.36;90.84;95500.16;5070065;28;20043;-72
2022/05/07 04:35:18;;;;;;;8.98;3.95;;;;;;;8.47;90.60;95503.97;5067322;28;20051;-72
2022/05/07 04:37:45;;;;;;;5.38;3.58;;;;;;;8.47;90.69;95489.19;5056152;28;20052;-72
2022/05/07 04:40:13;;;;;;;6.35;3.60;;;;;;;8.74;90.31;95520.31;5079983;28;20052;-72
2022/05/07 04:42:43;;;;;;;10.35;3.53;;;;;;;8.82;89.21;95507.13;5075331;28;20068;-72
2022/05/07 04:45:11;;;;;;;11.00;3.40;;;;;;;9.05;87.76;95524.06;5058361;28;20052;-71
2022/05/07 04:47:58;;;;;;;8.20;3.70;;;;;;;9.08;87.37;95505.47;5074185;28;20082;-73
2022/05/07 04:50:29;;;;;;;10.38;4.22;;;;;;;9.33;85.87;95518.59;5040712;28;20040;-73
2022/05/07 04:53:09;;;;;;;8.75;3.60;;;;;;;9.45;84.55;95510.94;5069877;28;20528;-72
2022/05/07 04:55:38;;;;;;;7.78;4.50;;;;;;;9.68;83.55;95521.63;5071837;28;20059;-72
2022/05/07 04:58:06;;;;;;;4.93;3.40;;;;;;;9.75;83.69;95517.19;5062152;28;20043;-72
2022/05/07 05:00:36;;;;;;;3.80;2.97;;;;;;;9.92;83.15;95512.28;5070993;28;20056;-72
2022/05/07 05:03:16;;;;;;;10.23;4.30;;;;;;;10.01;82.10;95507.63;5072039;28;20054;-72
2022/05/07 05:05:53;;;;;;;7.57;3.92;;;;;;;10.07;82.30;95493.78;5061371;28;20052;-72
2022/05/07 05:08:42;;;;;;;8.45;3.80;;;;;;;10.29;81.62;95515.03;5057448;28;20182;-72
2022/05/07 05:11:10;;;;;;;7.53;4.38;;;;;;;10.39;80.01;95517.22;5063160;28;20048;-73
2022/05/07 05:13:37;;;;;;;8.65;3.28;;;;;;;10.40;79.42;95492.75;5073133;28;20043;-73
2022/05/07 05:16:04;;;;;;;8.13;4.55;;;;;;;10.59;77.78;95516.22;5046182;28;20056;-73
2022/05/07 05:18:43;;;;;;;4.60;3.35;;;;;;;10.68;76.24;95509.75;5087706;28;20111;-73
2022/05/07 05:21:12;;;;;;;8.57;4.95;;;;;;;10.82;76.69;95513.84;5092765;28;20044;-73
2022/05/07 05:23:57;;;;;;;6.70;3.15;;;;;;;11.00;75.62;95515.66;5068998;28;20643;-73
2022/05/07 05:26:25;;;;;;;6.35;3.00;;;;;;;11.09;74.10;95513.53;5052125;28;20428;-72
2022/05/07 05:28:56;;;;;;;13.07;5.97;;;;;;;11.21;73.47;95519.63;5054465;28;20060;-72
2022/05/07 05:31:23;;;;;;;12.60;5.88;;;;;;;11.26;72.72;95522.38;5059086;28;20048;-72
2022/05/07 05:34:02;;;;;;;10.63;6.43;;;;;;;11.31;71.39;95507.88;5095965;28;20123;-72
2022/05/07 05:36:49;;;;;;;9.93;5.28;;;;;;;11.35;70.11;95520.28;5062570;28;20052;-72
2022/05/07 05:39:18;;;;;;;9.20;4.38;;;;;;;11.45;70.85;95519.75;5079286;28;20870;-72
2022/05/07 05:41:46;;;;;;;8.57;4.07;;;;;;;11.48;70.55;95512.28;5081027;28;20105;-72
2022/05/07 05:44:15;;;;;;;8.65;4.60;;;;;;;11.57;69.73;95512.78;5077037;28;20596;-72
2022/05/07 05:46:42;;;;;;;8.73;6.57;;;;;;;11.67;70.20;95513.06;5057797;28;20159;-70
2022/05/07 05:49:09;;;;;;;12.13;9.00;;;;;;;11.73;67.99;95508.00;5060391;28;20037;-72
2022/05/07 05:51:39;;;;;;;7.10;4.85;;;;;;;11.76;68.23;95491.91;5053829;28;20070;-74
2022/05/07 05:54:07;;;;;;;10.68;6.18;;;;;;;11.94;67.46;95504.91;5062671;28;20818;-72
2022/05/07 05:56:35;;;;;;;8.75;4.07;;;;;;;12.08;67.54;95517.78;5064244;28;20055;-72
2022/05/07 05:59:04;;;;;;;9.77;5.50;;;;;;;12.26;66.13;95520.31;5048496;28;20072;-71
2022/05/07 06:01:41;;;;;;;6.40;3.80;;;;;;;12.38;64.69;95513.28;5062486;28;20090;-71
2022/05/07 06:04:23;;;;;;;5.10;3.35;;;;;;;12.41;65.84;95507.63;5061319;28;20048;-73
2022/05/07 06:06:52;;;;;;;6.80;4.05;;;;;;;12.63;65.27;95515.72;5073724;28;20051;-73
2022/05/07 06:09:19;;;;;;;8.32;4.63;;;;;;;12.82;65.18;95521.63;5057359;28;20044;-73
2022/05/07 06:11:46;;;;;;;25.45;14.80;;;;;;;12.92;64.01;95517.66;5066090;28;20059;-73
2022/05/07 06:14:14;;;;;;;7.28;4.88;;;;;;;13.03;63.85;95519.44;5071230;28;20075;-73
2022/05/07 06:16:41;;;;;;;11.50;5.57;;;;;;;13.21;63.26;95521.13;5070437;28;20045;-72
2022/05/07 06:19:12;;;;;;;13.13;5.38;;;;;;;13.25;62.87;95516.25;5045967;28;20041;-72
2022/05/07 06:21:46;;;;;;;4.30;3.30;;;;;;;13.35;61.85;95521.72;5065303;28;20601;-72
2022/05/07 06:29:49;;;;;;;10.00;3.60;;;;;;;13.59;63.20;95519.81;5054883;28;20103;-74
2022/05/07 06:32:18;;;;;;;7.05;3.47;;;;;;;13.73;62.11;95523.75;5051564;28;20143;-72
2022/05/07 06:34:45;;;;;;;7.40;3.88;;;;;;;13.88;62.85;95518.03;5070606;28;20139;-72
2022/05/07 06:37:13;;;;;;;4.90;3.17;;;;;;;14.05;60.81;95519.88;5079608;28;20057;-72
2022/05/07 06:39:49;;;;;;;5.63;3.13;;;;;;;14.24;61.18;95508.16;5096797;28;20052;-71
2022/05/07 06:42:17;;;;;;;7.57;3.65;;;;;;;14.32;59.11;95502.53;5060809;28;20072;-72
2022/05/07 06:44:47;;;;;;;11.25;3.63;;;;;;;14.58;57.39;95508.19;5064367;28;20063;-71
2022/05/07 06:47:26;;;;;;;6.03;3.90;;;;;;;14.79;56.78;95519.00;5063793;28;20048;-71
2022/05/07 06:49:53;;;;;;;9.48;4.13;;;;;;;14.90;57.18;95515.47;5062635;28;20052;-72
2022/05/07 06:52:20;;;;;;;4.35;3.05;;;;;;;14.95;56.61;95507.69;5070385;28;20049;-72
2022/05/07 06:54:50;;;;;;;5.72;3.00;;;;;;;14.76;56.67;95503.72;5067539;28;20048;-72
2022/05/07 06:57:17;;;;;;;4.53;3.15;;;;;;;14.80;57.33;95499.59;5083710;28;20060;-73
2022/05/07 06:59:45;;;;;;;4.93;3.22;;;;;;;14.88;57.89;95507.06;5081008;28;20054;-72
2022/05/07 07:02:12;;;;;;;7.05;3.40;;;;;;;14.80;57.24;95502.22;5064132;28;20045;-73
2022/05/07 07:04:40;;;;;;;5.15;2.95;;;;;;;14.80;57.73;95499.59;5062303;28;20453;-70
2022/05/07 07:07:08;;;;;;;10.52;3.30;;;;;;;14.88;58.17;95507.06;5062158;28;20137;-71
2022/05/07 07:09:35;;;;;;;5.60;3.13;;;;;;;14.80;57.38;95510.06;5062574;28;20044;-72
2022/05/07 07:12:06;;;;;;;4.65;3.15;;;;;;;14.80;57.47;95510.06;5081269;28;20368;-71
2022/05/07 07:14:33;;;;;;;6.50;3.13;;;;;;;14.79;57.74;95506.66;5060076;28;20794;-71
2022/05/07 07:17:00;;;;;;;6.63;3.15;;;;;;;14.71;57.26;95505.25;5062022;28;20064;-71
2022/05/07 07:19:28;;;;;;;4.75;2.60;;;;;;;14.78;58.71;95501.66;5070869;28;20540;-72
2022/05/07 07:21:56;;;;;;;5.30;3.00;;;;;;;14.69;58.45;95496.84;5083754;28;20135;-72
2022/05/07 07:24:23;;;;;;;5.82;3.08;;;;;;;14.70;58.46;95503.66;5071222;28;20052;-72
2022/05/07 07:26:50;;;;;;;11.68;4.22;;;;;;;14.77;57.80;95506.13;5075625;28;20071;-73
2022/05/07 07:29:18;;;;;;;4.72;3.00;;;;;;;14.80;59.54;95499.59;5063629;28;20045;-74
2022/05/07 07:31:44;;;;;;;4.97;3.40;;;;;;;14.82;57.63;95492.25;5045429;28;20040;-72
2022/05/07 07:34:11;;;;;;;4.03;2.33;;;;;;;14.88;57.83;95492.09;5064693;28;20064;-74
2022/05/07 07:36:38;;;;;;;5.47;3.22;;;;;;;14.95;56.91;95494.56;5045141;28;20080;-73
2022/05/07 07:39:07;;;;;;;5.53;3.20;;;;;;;14.96;57.11;95483.03;5075054;28;20048;-74
2022/05/07 07:41:34;;;;;;;5.95;2.80;;;;;;;15.18;56.57;95495.38;5078467;28;20044;-73
2022/05/07 07:44:03;;;;;;;5.43;2.60;;;;;;;15.40;56.80;95493.56;5077534;28;20052;-73
2022/05/07 07:49:19;;;;;;;9.05;2.90;;;;;;;15.78;54.22;95484.00;5062784;28;20122;-73
2022/05/07 07:51:46;;;;;;;5.07;3.22;;;;;;;16.02;52.96;95478.47;5061159;28;20129;-72
2022/05/07 07:54:14;;;;;;;5.32;2.60;;;;;;;16.14;52.36;95484.34;5065826;28;20047;-72
2022/05/07 07:56:43;;;;;;;3.58;2.08;;;;;;;16.08;53.11;95461.72;5067700;28;20047;-70
2022/05/07 07:59:12;;;;;;;9.30;3.53;;;;;;;16.31;51.04;95480.81;5057383;28;20041;-70
2022/05/07 08:01:38;;;;;;;6.70;2.78;;;;;;;16.42;52.36;95482.47;5070426;28;20752;-73
2022/05/07 08:04:05;;;;;;;12.23;3.30;;;;;;;16.54;52.71;95482.31;5068453;28;20039;-72
2022/05/07 08:06:32;;;;;;;3.67;2.53;;;;;;;16.65;50.13;95480.53;5067811;28;20081;-72
2022/05/07 08:11:50;;;;;;;4.40;2.90;;;;;;;16.88;50.91;95485.44;5061243;28;20371;-73
2022/05/07 08:14:17;;;;;;;7.47;3.00;;;;;;;17.07;48.98;95482.38;5048795;28;20045;-72
2022/05/07 08:16:44;;;;;;;5.65;2.63;;;;;;;17.20;48.88;95493.25;5055157;28;20054;-71
2022/05/07 08:19:12;;;;;;;3.45;2.78;;;;;;;17.29;48.89;95490.91;5076856;28;20091;-73
2022/05/07 08:21:39;;;;;;;5.07;3.15;;;;;;;17.45;48.75;95488.34;5060103;28;20760;-74
2022/05/07 08:24:06;;;;;;;4.35;2.63;;;;;;;17.49;48.53;95484.16;5078366;28;20048;-73
2022/05/07 08:26:33;;;;;;;3.30;2.33;;;;;;;17.62;47.20;95491.56;5057443;28;20506;-71
2022/05/07 08:29:00;;;;;;;4.15;2.38;;;;;;;17.87;48.43;95490.09;5057791;28;20152;-71
2022/05/07 08:31:28;;;;;;;4.57;2.58;;;;;;;18.20;47.00;95488.00;5053216;28;20043;-72
2022/05/07 08:33:55;;;;;;;9.07;3.63;;;;;;;18.44;46.86;95483.00;5068116;28;20122;-71
2022/05/07 08:36:22;;;;;;;6.90;2.63;;;;;;;18.67;45.41;95485.13;5046382;28;20051;-71
2022/05/07 08:38:49;;;;;;;4.50;2.67;;;;;;;18.91;45.40;95476.66;5069826;28;20132;-72
2022/05/07 08:41:18;;;;;;;3.58;2.33;;;;;;;19.13;43.25;95484.25;5061901;28;20125;-72
2022/05/07 08:43:45;;;;;;;4.00;2.72;;;;;;;19.26;43.63;95483.66;5075240;28;20044;-71
2022/05/07 08:46:19;;;;;;;4.57;2.60;;;;;;;19.47;44.13;95481.75;5061140;28;20140;-72
2022/05/07 08:48:48;;;;;;;3.80;2.80;;;;;;;19.84;43.91;95483.19;5060766;28;20498;-72
2022/05/07 08:51:17;;;;;;;3.80;2.40;;;;;;;20.10;43.01;95479.59;5061686;28;20044;-72
2022/05/07 08:53:48;;;;;;;4.38;2.58;;;;;;;20.09;42.82;95475.34;5045213;28;20128;-73
2022/05/07 08:56:16;;;;;;;3.72;2.95;;;;;;;20.25;40.82;95477.59;5071171;28;20067;-72
2022/05/07 08:58:47;;;;;;;3.13;2.55;;;;;;;20.00;39.79;95486.50;5072837;28;20044;-72
2022/05/07 09:01:15;;;;;;;6.28;2.25;;;;;;;20.15;40.17;95466.31;5059904;28;20036;-71
2022/05/07 09:03:48;;;;;;;3.97;2.50;;;;;;;20.49;40.51;95468.16;5076765;28;20076;-72
2022/05/07 09:06:23;;;;;;;3.38;2.13;;;;;;;20.59;39.81;95465.44;5075665;28;20655;-73
2022/05/07 09:08:51;;;;;;;3.78;2.28;;;;;;;20.70;38.72;95466.94;5043181;28;20055;-73
2022/05/07 09:11:19;;;;;;;3.50;2.35;;;;;;;20.95;39.21;95462.47;5063085;28;20491;-73
2022/05/07 09:13:47;;;;;;;3.42;2.20;;;;;;;21.26;37.91;95462.13;5060890;28;20525;-72
2022/05/07 09:16:15;;;;;;;4.28;2.80;;;;;;;21.52;38.28;95463.44;5077540;28;20055;-72
2022/05/07 09:18:48;;;;;;;3.88;2.60;;;;;;;21.72;36.04;95448.34;5071306;28;20040;-73
2022/05/07 09:21:16;;;;;;;3.95;2.35;;;;;;;21.96;36.92;95458.84;5071894;28;20739;-73
2022/05/07 09:23:59;;;;;;;3.08;2.08;;;;;;;22.36;35.89;95450.59;5080135;28;20121;-73
2022/05/07 09:26:30;;;;;;;3.83;2.20;;;;;;;22.43;34.47;95461.59;5048193;28;20067;-73
2022/05/07 09:28:59;;;;;;;3.47;2.17;;;;;;;22.71;34.14;95465.91;5064293;28;20072;-72
2022/05/07 09:31:27;;;;;;;10.10;3.33;;;;;;;23.14;34.62;95464.91;5057913;28;20056;-71
2022/05/07 09:33:55;;;;;;;5.90;1.65;;;;;;;23.52;31.22;95464.69;5059628;28;20516;-72
2022/05/07 09:36:23;;;;;;;3.97;2.92;;;;;;;23.59;30.88;95458.97;5075611;28;20048;-73
2022/05/07 09:39:01;;;;;;;3.42;1.88;;;;;;;23.45;31.39;95438.50;5085331;28;20551;-73
2022/05/07 09:41:27;;;;;;;2.90;2.17;;;;;;;23.46;32.32;95456.03;5067205;28;20052;-73
2022/05/07 09:43:54;;;;;;;4.03;1.70;;;;;;;23.42;33.27;95444.41;5093962;28;20749;-71
2022/05/07 09:46:22;;;;;;;2.53;1.90;;;;;;;23.82;32.26;95451.84;5059635;28;20055;-72
2022/05/07 09:48:49;;;;;;;5.20;2.30;;;;;;;23.96;32.27;95446.47;5058838;28;20052;-72
2022/05/07 09:51:19;;;;;;;3.10;2.35;;;;;;;24.30;31.74;95440.63;5068049;28;20141;-73
2022/05/07 09:59:19;;;;;;;7.15;3.30;;;;;;;24.66;29.54;95436.31;5069950;28;20243;-72
2022/05/07 10:02:26;;;;;;;4.22;1.73;;;;;;;24.91;27.47;95427.66;5065616;28;20048;-73
2022/05/07 10:05:24;;;;;;;4.00;1.98;;;;;;;24.24;28.53;95431.19;5072763;28;20457;-72
2022/05/07 10:08:13;;;;;;;5.72;2.30;;;;;;;24.69;29.78;95433.06;5066845;28;20044;-72
2022/05/07 10:10:44;;;;;;;3.83;1.73;;;;;;;24.79;26.96;95425.59;5058844;28;20044;-71
2022/05/07 10:13:16;;;;;;;2.60;1.70;;;;;;;24.89;27.08;95423.75;5063208;28;20569;-71
2022/05/07 10:15:45;;;;;;;2.28;1.60;;;;;;;24.83;28.07;95407.09;5075379;28;20595;-72
2022/05/07 10:18:16;;;;;;;3.75;1.90;;;;;;;24.88;27.46;95412.28;5066711;28;20529;-71
2022/05/07 10:20:47;;;;;;;2.33;1.65;;;;;;;24.47;26.96;95413.34;5077484;28;20530;-72
2022/05/07 10:23:28;;;;;;;4.00;1.27;;;;;;;24.53;26.83;95406.81;5076968;28;20528;-71
2022/05/07 10:25:57;;;;;;;2.22;1.50;;;;;;;24.42;26.34;95408.91;5067381;28;20041;-73
2022/05/07 10:28:42;;;;;;;3.78;2.05;;;;;;;24.15;25.95;95401.88;5064476;28;20051;-73
2022/05/07 10:31:22;;;;;;;1.65;1.35;;;;;;;24.02;25.04;95402.69;5087045;28;20562;-72
2022/05/07 10:33:50;;;;;;;2.30;1.38;;;;;;;24.03;24.09;95398.97;5064041;28;20109;-71
2022/05/07 10:36:19;;;;;;;2.78;1.25;;;;;;;23.78;26.13;95409.06;5079730;28;20596;-73
2022/05/07 10:38:47;;;;;;;2.97;1.80;;;;;;;23.68;27.95;95404.00;5037043;28;20760;-73
2022/05/07 10:41:16;;;;;;;2.80;1.77;;;;;;;23.72;27.60;95404.97;5055309;28;20040;-72
2022/05/07 10:43:48;;;;;;;11.77;1.83;;;;;;;23.87;27.18;95400.41;5057524;28;20520;-72
2022/05/07 10:46:19;;;;;;;3.22;1.95;;;;;;;24.13;28.34;95392.59;5080991;28;20830;-72
2022/05/07 10:49:04;;;;;;;3.70;1.90;;;;;;;24.30;28.81;95397.25;5065064;28;20047;-72
2022/05/07 10:51:32;;;;;;;3.13;1.88;;;;;;;24.72;27.66;95387.16;5070940;28;20115;-72
2022/05/07 10:54:03;;;;;;;2.55;1.88;;;;;;;24.99;26.32;95392.28;5055643;28;20048;-73
2022/05/07 10:56:34;;;;;;;3.30;1.77;;;;;;;25.08;26.03;95394.16;5072211;28;20052;-73
2022/05/07 10:59:02;;;;;;;3.75;1.45;;;;;;;25.03;25.19;95391.63;5061645;28;20057;-72
2022/05/07 11:01:31;;;;;;;2.00;1.30;;;;;;;24.92;24.84;95381.28;5058136;28;20049;-73
2022/05/07 11:04:08;;;;;;;4.63;1.55;;;;;;;25.09;22.70;95385.09;5059090;28;20132;-73
2022/05/07 11:06:46;;;;;;;2.67;1.77;;;;;;;25.35;25.11;95393.94;5074675;28;20787;-73
2022/05/07 11:09:19;;;;;;;2.67;1.52;;;;;;;25.47;23.60;95397.88;5065761;28;20131;-71
2022/05/07 11:11:49;;;;;;;4.35;1.95;;;;;;;25.72;24.37;95383.78;5063486;28;20044;-71
2022/05/07 11:14:23;;;;;;;2.55;1.73;;;;;;;25.86;24.95;95390.84;5074648;28;20095;-72
2022/05/07 11:16:52;;;;;;;1.95;1.40;;;;;;;25.95;23.19;95383.66;5064639;28;20037;-72
2022/05/07 11:19:33;;;;;;;5.22;2.20;;;;;;;26.10;23.83;95385.81;5051156;28;20142;-72
2022/05/07 11:22:03;;;;;;;4.10;2.05;;;;;;;26.24;24.45;95382.19;5052254;28;20834;-72
2022/05/07 11:24:32;;;;;;;2.55;1.80;;;;;;;26.39;24.29;95371.00;5061458;28;20106;-72
2022/05/07 11:27:02;;;;;;;7.32;2.33;;;;;;;26.69;22.92;95371.09;5070099;28;20136;-72
2022/05/07 11:29:30;;;;;;;3.28;1.65;;;;;;;27.05;23.50;95375.16;5067240;28;20465;-72
2022/05/07 11:31:59;;;;;;;5.00;2.05;;;;;;;27.32;23.83;95373.16;5052903;28;20822;-72
2022/05/07 11:34:56;;;;;;;16.55;2.75;;;;;;;27.45;22.80;95377.47;5054302;28;20047;-73
2022/05/07 11:37:24;;;;;;;3.65;1.45;;;;;;;27.20;21.75;95374.59;5052093;28;20139;-72
2022/05/07 11:40:01;;;;;;;5.78;2.22;;;;;;;27.19;21.62;95370.38;5057577;28;20769;-72
2022/05/07 11:42:50;;;;;;;2.85;1.52;;;;;;;26.96;22.28;95361.06;5074652;28;20072;-72
2022/05/07 11:45:26;;;;;;;4.47;2.38;;;;;;;26.92;22.27;95365.47;5060276;28;20083;-71
2022/05/07 11:47:59;;;;;;;4.30;1.92;;;;;;;27.16;24.31;95354.19;5079803;28;20051;-72
2022/05/07 11:50:31;;;;;;;3.15;1.85;;;;;;;27.09;22.43;95354.69;5075600;28;20048;-70
2022/05/07 11:53:17;;;;;;;2.97;2.00;;;;;;;27.09;22.71;95350.13;5069158;28;20291;-71
2022/05/07 11:55:45;;;;;;;2.28;1.50;;;;;;;27.45;23.75;95350.72;5070678;28;20537;-71
2022/05/07 11:58:17;;;;;;;3.60;2.08;;;;;;;27.82;22.35;95345.53;5049012;28;20036;-71
2022/05/07 12:00:46;;;;;;;2.83;1.52;;;;;;;27.92;22.32;95337.13;5073936;28;20128;-71
2022/05/07 12:03:19;;;;;;;6.28;2.28;;;;;;;28.12;23.43;95334.72;5040695;28;20040;-70
2022/05/07 12:05:48;;;;;;;4.28;1.85;;;;;;;28.44;21.58;95329.66;5054810;28;20045;-71
2022/05/07 12:08:20;;;;;;;2.60;2.10;;;;;;;28.40;21.71;95324.97;5052771;28;20584;-71
2022/05/07 12:10:51;;;;;;;2.95;1.50;;;;;;;28.50;21.27;95328.31;5056666;28;20772;-70
2022/05/07 12:13:21;;;;;;;2.72;1.90;;;;;;;28.54;22.47;95323.88;5052991;28;20048;-71
2022/05/07 12:18:37;;;;;;;3.50;1.65;;;;;;;28.02;22.24;95315.28;5055667;28;20045;-72